Time;durP1;ratioP1;P1;durP2;ratioP2;P2;SDS_P1;SDS_P2;PMS_P1;PMS_P2;Temp;Humidity;BMP_temperature;BMP_pressure;BME280_temperature;BME280_humidity;BME280_pressure;Samples;Min_cycle;Max_cycle;Signal;HPM_P1;HPM_P2
2023/10/06 00:01:44;;;;;;;12.02;5.20;;;;;;;-145.63;55.28;39343.03;5048406;28;20021;-69
2023/10/06 00:04:15;;;;;;;11.73;5.28;;;;;;;-145.63;55.22;39325.41;5059622;28;20221;-69
2023/10/06 00:06:45;;;;;;;7.88;4.63;;;;;;;-145.63;55.32;39337.16;5041183;28;20322;-70
2023/10/06 00:09:28;;;;;;;9.95;5.32;;;;;;;-145.63;54.96;39303.91;5037190;28;20036;-69
2023/10/06 00:11:55;;;;;;;15.10;5.85;;;;;;;-145.63;55.08;39317.59;5040260;28;20037;-69
2023/10/06 00:14:39;;;;;;;11.13;5.43;;;;;;;-145.63;55.53;39258.94;5053619;28;20163;-68
2023/10/06 00:17:15;;;;;;;11.00;5.70;;;;;;;-145.63;55.50;39348.88;5053061;28;20037;-70
2023/10/06 00:19:42;;;;;;;13.77;6.10;;;;;;;-145.63;55.36;39360.63;5048125;28;20033;-70
2023/10/06 00:24:36;;;;;;;10.43;5.70;;;;;;;-145.63;55.16;39292.19;5042384;28;20040;-69
2023/10/06 00:27:03;;;;;;;11.57;5.90;;;;;;;-145.63;55.47;39321.50;5045973;28;20167;-69
2023/10/06 00:29:29;;;;;;;10.60;5.78;;;;;;;-145.63;55.03;39307.81;5042204;28;20313;-69
2023/10/06 00:32:01;;;;;;;11.38;5.65;;;;;;;-145.63;55.29;39313.69;5051763;28;20040;-70
2023/10/06 00:34:30;;;;;;;11.02;5.50;;;;;;;-145.63;54.88;39305.88;5061633;28;20033;-69
2023/10/06 00:36:57;;;;;;;8.32;5.25;;;;;;;-145.63;55.34;39301.94;5045282;28;20047;-67
2023/10/06 00:39:24;;;;;;;10.50;5.60;;;;;;;-145.63;54.97;39344.97;5045358;28;20021;-68
2023/10/06 00:42:06;;;;;;;11.45;5.50;;;;;;;-145.63;54.86;39341.06;5052639;28;20345;-70
2023/10/06 00:44:32;;;;;;;11.80;5.70;;;;;;;-145.63;55.15;39303.91;5058356;28;20029;-71
2023/10/06 00:46:58;;;;;;;14.23;6.00;;;;;;;-145.63;55.28;39317.59;5060718;28;20048;-70
2023/10/06 00:49:25;;;;;;;13.27;5.95;;;;;;;-145.63;55.34;39362.59;5062422;28;20026;-69
2023/10/06 00:51:53;;;;;;;10.80;5.68;;;;;;;-145.63;55.32;39325.41;5045936;28;20025;-70
2023/10/06 00:54:20;;;;;;;10.10;5.47;;;;;;;-145.63;55.73;39341.06;5064773;28;20024;-69
2023/10/06 00:56:47;;;;;;;10.73;5.47;;;;;;;-145.63;55.67;39313.69;5050835;28;20033;-71
2023/10/06 00:59:12;;;;;;;8.20;6.10;;;;;;;-145.63;55.19;39323.47;5054718;28;20021;-70
2023/10/06 01:01:42;;;;;;;10.98;5.75;;;;;;;-145.63;55.91;39313.69;5059061;28;20179;-68
2023/10/06 01:04:08;;;;;;;10.48;5.53;;;;;;;-145.63;56.05;39323.47;5045530;28;20132;-70
2023/10/06 01:06:38;;;;;;;13.18;6.18;;;;;;;-145.63;55.96;39313.69;5045384;28;20322;-69
2023/10/06 01:11:45;;;;;;;10.70;6.30;;;;;;;-145.63;56.49;39274.56;5043397;28;20344;-68
2023/10/06 01:14:11;;;;;;;10.68;5.70;;;;;;;-145.63;56.01;39301.94;5054702;28;20036;-68
2023/10/06 01:16:36;;;;;;;8.25;5.57;;;;;;;-145.63;55.74;39333.25;5060130;28;20034;-68
2023/10/06 01:21:48;;;;;;;15.55;5.82;;;;;;;-145.63;56.07;39313.69;5064989;28;20017;-69
2023/10/06 01:24:15;;;;;;;11.07;5.95;;;;;;;-145.63;56.41;39391.91;5046886;28;20021;-69
2023/10/06 01:26:42;;;;;;;13.15;5.97;;;;;;;-145.63;56.49;39339.13;5047702;28;20026;-70
2023/10/06 01:29:13;;;;;;;12.65;6.30;;;;;;;-145.63;56.80;39313.69;5053969;28;20032;-69
2023/10/06 01:31:40;;;;;;;8.63;5.80;;;;;;;-145.63;56.36;39335.19;5059809;28;20021;-69
2023/10/06 01:34:10;;;;;;;11.90;6.10;;;;;;;-145.63;56.55;39303.91;5044804;28;20083;-69
2023/10/06 01:36:37;;;;;;;13.20;6.28;;;;;;;-145.63;56.53;39362.59;5044702;28;20041;-69
2023/10/06 01:39:04;;;;;;;11.88;6.35;;;;;;;-145.63;56.47;39315.66;5061260;28;20024;-68
2023/10/06 01:41:35;;;;;;;11.45;6.10;;;;;;;-145.63;56.61;39348.88;5053220;28;20075;-69
2023/10/06 01:44:09;;;;;;;12.82;5.93;;;;;;;-145.63;56.94;39303.91;5043511;28;20032;-69
2023/10/06 01:46:37;;;;;;;15.35;6.57;;;;;;;-145.63;57.43;39327.38;5058903;28;20048;-68
2023/10/06 01:49:02;;;;;;;13.00;6.05;;;;;;;-145.63;57.43;39317.59;5064730;28;20037;-69
2023/10/06 01:51:28;;;;;;;12.15;6.30;;;;;;;-145.63;57.32;39329.34;5044725;28;20071;-67
2023/10/06 01:53:54;;;;;;;13.52;6.57;;;;;;;-145.63;57.45;39344.97;5058143;28;20025;-69
2023/10/06 01:56:22;;;;;;;13.43;6.88;;;;;;;-145.63;57.41;39301.94;5047368;28;20026;-68
2023/10/06 01:58:51;;;;;;;12.23;6.70;;;;;;;-145.63;57.63;39344.97;5044344;28;20039;-68
2023/10/06 02:01:18;;;;;;;12.30;6.40;;;;;;;-145.63;57.98;39315.66;5049654;28;20130;-69
2023/10/06 02:03:44;;;;;;;14.75;6.43;;;;;;;-145.63;56.91;39337.16;5045240;28;20047;-68
2023/10/06 02:06:15;;;;;;;12.77;6.57;;;;;;;-145.63;57.55;39309.78;5054746;28;20348;-69
2023/10/06 02:08:43;;;;;;;9.50;5.93;;;;;;;-145.63;57.44;39339.13;5038211;28;20050;-68
2023/10/06 02:11:09;;;;;;;13.73;6.10;;;;;;;-145.63;57.83;39305.88;5042253;28;20261;-68
2023/10/06 02:13:37;;;;;;;12.27;6.25;;;;;;;-145.63;57.43;39319.56;5048291;28;20044;-68
2023/10/06 02:16:04;;;;;;;13.02;6.50;;;;;;;-145.63;58.10;39274.56;5062761;28;20045;-68
2023/10/06 02:18:36;;;;;;;13.43;6.55;;;;;;;-145.63;58.64;39354.75;5043966;28;20047;-69
2023/10/06 02:21:11;;;;;;;;;;;;;;;-145.63;58.80;39335.19;5059281;28;20049;-68
2023/10/06 02:23:42;;;;;;;14.98;7.22;;;;;;;-145.63;58.25;39335.19;5051495;28;19905;-69
2023/10/06 02:26:13;;;;;;;13.60;7.05;;;;;;;-145.63;58.67;39317.59;5046056;28;20041;-68
2023/10/06 02:28:48;;;;;;;15.55;7.40;;;;;;;-145.63;58.86;39325.41;5047967;28;20025;-68
2023/10/06 02:31:21;;;;;;;14.48;6.57;;;;;;;-145.63;58.53;39323.47;5062696;28;20082;-68
2023/10/06 02:33:49;;;;;;;12.50;7.18;;;;;;;-145.63;58.88;39335.19;5038758;28;20617;-69
2023/10/06 02:36:17;;;;;;;12.18;7.20;;;;;;;-145.63;58.70;39321.50;5036515;28;20032;-69
2023/10/06 02:38:47;;;;;;;12.52;6.93;;;;;;;-145.63;58.47;39378.22;5050018;28;20039;-69
2023/10/06 02:41:18;;;;;;;12.93;7.03;;;;;;;-145.63;58.78;39337.16;5054224;28;20029;-68
2023/10/06 02:43:47;;;;;;;15.18;6.90;;;;;;;-145.63;58.56;39321.50;5048265;28;20070;-70
2023/10/06 02:46:15;;;;;;;12.88;7.53;;;;;;;-145.63;58.86;39300.00;5057120;28;20025;-68
2023/10/06 02:48:48;;;;;;;13.05;7.20;;;;;;;-145.63;59.48;39337.16;5063481;28;20084;-69
2023/10/06 02:51:32;;;;;;;14.90;8.45;;;;;;;-145.63;59.38;39317.59;5046013;28;20032;-70
2023/10/06 02:54:27;;;;;;;32.53;21.38;;;;;;;-145.63;58.95;39327.38;5057335;28;20222;-68
2023/10/06 02:56:50;;;;;;;13.23;7.10;;;;;;;-145.63;59.30;39323.47;5049124;28;20118;-68
2023/10/06 02:59:23;;;;;;;10.10;6.03;;;;;;;-145.63;58.91;39325.41;5052478;28;20232;-67
2023/10/06 03:02:06;;;;;;;12.02;6.53;;;;;;;-145.63;59.36;39300.00;5056272;28;20048;-68
2023/10/06 03:04:36;;;;;;;14.15;7.47;;;;;;;-145.63;59.51;39470.16;5046271;28;20021;-68
2023/10/06 03:07:05;;;;;;;13.23;7.05;;;;;;;-145.63;59.01;39329.34;5049565;28;20092;-68
2023/10/06 03:09:37;;;;;;;11.85;7.13;;;;;;;-145.63;59.28;39307.81;5036405;28;20409;-68
2023/10/06 03:12:26;;;;;;;13.77;8.50;;;;;;;-145.63;59.26;39325.41;5041060;28;20119;-68
2023/10/06 03:14:54;;;;;;;12.60;7.00;;;;;;;-145.63;59.03;39319.56;5056962;28;20044;-69
2023/10/06 03:17:20;;;;;;;14.00;7.38;;;;;;;-145.63;59.24;39360.63;5053154;28;20037;-68
2023/10/06 03:20:07;;;;;;;13.05;7.25;;;;;;;-145.63;58.85;39313.69;5047831;28;20082;-69
2023/10/06 03:22:35;;;;;;;14.55;8.23;;;;;;;-145.63;59.24;39329.34;5059641;28;20037;-68
2023/10/06 03:25:13;;;;;;;9.93;6.82;;;;;;;-145.63;59.71;39346.94;5042841;28;20060;-69
2023/10/06 03:27:40;;;;;;;12.50;8.25;;;;;;;-145.63;59.62;39325.41;5041650;28;20199;-69
2023/10/06 03:30:11;;;;;;;11.48;7.40;;;;;;;-145.63;59.88;39321.50;5058608;28;20099;-70
2023/10/06 03:32:39;;;;;;;16.67;7.82;;;;;;;-145.63;59.82;39337.16;5050837;28;20033;-69
2023/10/06 03:35:22;;;;;;;16.20;7.57;;;;;;;-145.63;59.53;39303.91;5050339;28;20028;-69
2023/10/06 03:37:56;;;;;;;12.60;7.35;;;;;;;-145.63;59.84;39348.88;5057411;28;20017;-70
2023/10/06 03:40:43;;;;;;;12.73;7.32;;;;;;;-145.63;59.82;39290.22;5042720;28;20326;-68
2023/10/06 03:43:12;;;;;;;18.83;7.68;;;;;;;-145.63;59.90;39327.38;5042674;28;20048;-67
2023/10/06 03:45:43;;;;;;;10.88;6.90;;;;;;;-145.63;60.06;39329.34;5024216;28;20080;-67
2023/10/06 03:48:11;;;;;;;11.00;7.60;;;;;;;-145.63;59.86;39321.50;5039489;28;20060;-67
2023/10/06 03:50:41;;;;;;;8.15;6.25;;;;;;;-145.63;59.83;39329.34;5041478;28;20029;-69
2023/10/06 03:53:08;;;;;;;11.05;6.80;;;;;;;-145.63;59.64;39290.22;5050050;28;20052;-69
2023/10/06 03:55:42;;;;;;;13.73;6.63;;;;;;;-145.63;59.97;39305.88;5059901;28;20056;-68
2023/10/06 03:58:09;;;;;;;11.52;6.85;;;;;;;-145.63;59.72;39343.03;5039238;28;20107;-68
2023/10/06 04:00:40;;;;;;;11.07;6.32;;;;;;;-145.63;59.85;39329.34;5041969;28;20096;-66
2023/10/06 04:03:09;;;;;;;15.15;6.88;;;;;;;-145.63;59.49;39372.34;5042721;28;20098;-68
2023/10/06 04:05:37;;;;;;;10.45;7.45;;;;;;;-145.63;59.70;39319.56;5053362;28;20029;-69
2023/10/06 04:08:12;;;;;;;12.07;7.05;;;;;;;-145.63;60.07;39323.47;5043182;28;20033;-70
2023/10/06 04:10:42;;;;;;;12.32;7.75;;;;;;;-145.63;60.20;39294.13;5040009;28;20051;-68
2023/10/06 04:13:11;;;;;;;14.30;8.02;;;;;;;-145.63;59.88;39354.75;5026321;28;20026;-68
2023/10/06 04:15:48;;;;;;;12.13;7.40;;;;;;;-145.63;59.84;39325.41;5054552;28;20101;-68
2023/10/06 04:18:22;;;;;;;13.75;8.18;;;;;;;-145.63;59.56;39360.63;5054800;28;20044;-67
2023/10/06 04:20:51;;;;;;;10.18;7.40;;;;;;;-145.63;59.53;39374.31;5053170;28;20035;-69
2023/10/06 04:23:18;;;;;;;12.23;8.00;;;;;;;-145.63;59.39;39217.84;5057449;28;20037;-69
2023/10/06 04:25:45;;;;;;;12.45;7.35;;;;;;;-145.63;59.23;39333.25;5045960;28;20037;-69
2023/10/06 04:28:15;;;;;;;11.48;7.18;;;;;;;-145.63;59.63;39325.41;5046012;28;20277;-69
2023/10/06 04:30:43;;;;;;;12.05;7.05;;;;;;;-145.63;59.58;39364.53;5024702;28;20218;-68
2023/10/06 04:33:10;;;;;;;11.68;7.05;;;;;;;-145.63;59.70;39319.56;5057310;28;20074;-68
2023/10/06 04:35:40;;;;;;;14.45;7.38;;;;;;;-145.63;60.00;39335.19;5047108;28;20039;-68
2023/10/06 04:38:09;;;;;;;12.25;7.32;;;;;;;-145.63;59.86;39337.16;5032970;28;20036;-68
2023/10/06 04:40:35;;;;;;;16.27;7.40;;;;;;;-145.63;59.46;39341.06;5029499;28;20135;-69
2023/10/06 04:43:02;;;;;;;10.38;7.50;;;;;;;-145.63;59.09;39344.97;5046801;28;20021;-69
2023/10/06 04:45:31;;;;;;;9.98;6.45;;;;;;;-145.63;59.43;39374.31;5063345;28;20037;-69
2023/10/06 04:48:00;;;;;;;9.88;6.35;;;;;;;-145.63;58.88;39343.03;5059289;28;20067;-69
2023/10/06 04:50:30;;;;;;;12.00;7.45;;;;;;;-145.63;58.87;39301.94;5055110;28;20127;-69
2023/10/06 04:52:56;;;;;;;10.32;7.43;;;;;;;-145.63;59.09;39335.19;5036309;28;20101;-66
2023/10/06 04:55:22;;;;;;;12.50;6.97;;;;;;;-145.63;59.24;39309.78;5026445;28;20026;-68
2023/10/06 04:57:48;;;;;;;10.45;6.97;;;;;;;-145.63;58.83;39335.19;5039542;28;20030;-70
2023/10/06 05:00:19;;;;;;;10.32;6.60;;;;;;;-145.63;58.58;39309.78;5057357;28;20033;-67
2023/10/06 05:02:50;;;;;;;10.40;6.65;;;;;;;-145.63;58.57;39352.81;5043843;28;20021;-68
2023/10/06 05:05:20;;;;;;;;;;;;;;;-145.63;58.63;39333.25;5042459;28;20154;-68
2023/10/06 05:07:50;;;;;;;11.65;7.20;;;;;;;-145.63;58.34;39352.81;5042818;28;19980;-68
2023/10/06 05:10:25;;;;;;;9.82;7.18;;;;;;;-145.63;58.57;39309.78;5038337;28;20037;-68
2023/10/06 05:12:54;;;;;;;9.55;6.90;;;;;;;-145.63;58.59;39321.50;5029972;28;20028;-69
2023/10/06 05:15:23;;;;;;;11.88;6.68;;;;;;;-145.63;58.49;39317.59;5054848;28;20076;-70
2023/10/06 05:17:55;;;;;;;10.57;6.95;;;;;;;-145.63;57.66;39305.88;5039873;28;20049;-67
2023/10/06 05:20:32;;;;;;;11.57;7.05;;;;;;;-145.63;57.51;39313.69;5041229;28;20227;-69
2023/10/06 05:23:06;;;;;;;13.55;7.07;;;;;;;-145.63;58.01;39352.81;5045428;28;20037;-69
2023/10/06 05:25:36;;;;;;;11.25;6.82;;;;;;;-145.63;57.86;39329.34;5062714;28;20337;-68
2023/10/06 05:28:03;;;;;;;13.13;7.53;;;;;;;-145.63;57.99;39317.59;5044374;28;20045;-68
2023/10/06 05:30:30;;;;;;;9.68;6.40;;;;;;;-145.63;56.61;39307.81;5043370;28;20084;-68
2023/10/06 05:33:03;;;;;;;9.43;5.93;;;;;;;-145.63;56.43;39327.38;5056612;28;20029;-68
2023/10/06 05:35:38;;;;;;;10.40;5.78;;;;;;;-145.63;56.41;39301.94;5047688;28;20033;-68
2023/10/06 05:38:13;;;;;;;11.25;5.75;;;;;;;-145.63;55.46;39321.50;5037435;28;20020;-68
2023/10/06 05:40:52;;;;;;;9.65;5.40;;;;;;;-145.63;55.45;39333.25;5061489;28;20136;-67
2023/10/06 05:43:17;;;;;;;11.18;5.40;;;;;;;-145.63;55.09;39270.66;5023444;28;20361;-67
2023/10/06 05:45:51;;;;;;;9.68;5.82;;;;;;;-145.63;54.67;39307.81;5044610;28;20056;-68
2023/10/06 05:48:21;;;;;;;10.70;5.50;;;;;;;-145.63;54.85;39276.53;5060869;28;20316;-68
2023/10/06 05:50:48;;;;;;;10.18;5.47;;;;;;;-145.63;53.87;39258.94;5052238;28;20044;-69
2023/10/06 05:53:23;;;;;;;7.63;5.50;;;;;;;-145.63;54.65;39282.41;5051687;28;20016;-68
2023/10/06 05:55:52;;;;;;;8.60;5.38;;;;;;;-145.63;53.88;39278.47;5028497;28;20029;-67
2023/10/06 05:58:23;;;;;;;8.60;5.68;;;;;;;-145.63;54.31;39219.81;5044528;28;20048;-67
2023/10/06 06:00:56;;;;;;;12.10;5.88;;;;;;;-145.63;54.02;39253.06;5035188;28;20052;-67
2023/10/06 06:03:26;;;;;;;11.30;5.72;;;;;;;-145.63;54.03;39268.72;5034772;28;20056;-68
2023/10/06 06:06:07;;;;;;;11.05;5.38;;;;;;;-145.63;52.98;39290.22;5044784;28;20190;-69
2023/10/06 06:08:34;;;;;;;7.60;5.35;;;;;;;-145.63;53.19;39286.31;5027868;28;20405;-68
2023/10/06 06:11:01;;;;;;;10.30;5.10;;;;;;;-145.63;53.09;39313.69;5026264;28;20094;-68
2023/10/06 06:13:26;;;;;;;8.27;5.47;;;;;;;-145.63;53.29;39282.41;5043190;28;20022;-66
2023/10/06 06:15:54;;;;;;;11.32;5.80;;;;;;;-145.63;53.25;39311.72;5041472;28;20040;-69
2023/10/06 06:18:20;;;;;;;9.35;5.40;;;;;;;-145.63;53.60;39268.72;5043628;28;20060;-68
2023/10/06 06:20:46;;;;;;;11.27;5.22;;;;;;;-145.63;53.43;39251.09;5054732;28;20041;-68
2023/10/06 06:23:15;;;;;;;10.70;5.95;;;;;;;-145.63;53.25;39290.22;5044710;28;20181;-68
2023/10/06 06:25:44;;;;;;;13.15;5.55;;;;;;;-145.63;52.61;39217.84;5037216;28;20075;-69
2023/10/06 06:28:14;;;;;;;8.55;4.70;;;;;;;-145.63;51.73;39213.94;5043522;28;20033;-67
2023/10/06 06:30:40;;;;;;;8.60;4.72;;;;;;;-145.63;51.81;39219.81;5048160;28;20017;-67
2023/10/06 06:33:12;;;;;;;12.88;6.13;;;;;;;-145.63;51.96;39239.38;5032374;28;20298;-69
2023/10/06 06:35:38;;;;;;;12.25;5.10;;;;;;;-145.63;51.83;39247.19;5046969;28;20029;-68
2023/10/06 06:38:07;;;;;;;10.30;5.03;;;;;;;-145.63;52.04;39264.78;5048065;28;20089;-67
2023/10/06 06:40:34;;;;;;;9.80;5.70;;;;;;;-145.63;51.85;39307.81;5062046;28;20051;-67
2023/10/06 06:43:00;;;;;;;9.95;5.50;;;;;;;-145.63;52.33;39262.84;5030243;28;20088;-67
2023/10/06 06:45:28;;;;;;;8.32;5.88;;;;;;;-145.63;52.14;39305.88;5033368;28;20033;-67
2023/10/06 06:47:55;;;;;;;8.70;5.25;;;;;;;-145.63;52.27;39286.31;5035077;28;20029;-68
2023/10/06 06:50:21;;;;;;;8.70;4.75;;;;;;;-145.63;51.59;39288.25;5035555;28;20026;-67
2023/10/06 06:52:51;;;;;;;13.10;5.85;;;;;;;-145.63;52.02;39262.84;5043355;28;20041;-67
2023/10/06 06:55:18;;;;;;;11.93;5.30;;;;;;;-145.63;52.30;39280.44;5063262;28;20217;-68
2023/10/06 06:57:48;;;;;;;12.18;5.47;;;;;;;-145.63;52.13;39290.22;5044108;28;20063;-68
2023/10/06 07:00:16;;;;;;;9.40;5.32;;;;;;;-145.63;52.36;39272.63;5043500;28;20052;-68
2023/10/06 07:02:43;;;;;;;9.85;5.45;;;;;;;-145.63;52.10;39290.22;5053628;28;20286;-69
2023/10/06 07:05:13;;;;;;;11.73;6.18;;;;;;;-145.63;52.63;39300.00;5057094;28;20322;-69
2023/10/06 07:07:42;;;;;;;11.68;5.57;;;;;;;-145.63;51.98;39243.28;5045303;28;20029;-68
2023/10/06 07:10:12;;;;;;;8.70;4.93;;;;;;;-145.63;51.80;39274.56;5061427;28;20120;-67
2023/10/06 07:12:38;;;;;;;12.52;6.32;;;;;;;-145.63;52.71;39294.13;5043139;28;20174;-67
2023/10/06 07:15:04;;;;;;;11.63;5.80;;;;;;;-145.63;52.08;39262.84;5056282;28;20041;-68
2023/10/06 07:17:31;;;;;;;11.38;5.68;;;;;;;-145.63;53.02;39280.44;5054482;28;20036;-68
2023/10/06 07:20:00;;;;;;;11.30;5.53;;;;;;;-145.63;52.81;39284.34;5047291;28;20037;-67
2023/10/06 07:22:31;;;;;;;11.68;5.63;;;;;;;-145.63;52.33;39298.03;5062811;28;20048;-67
2023/10/06 07:24:58;;;;;;;12.60;5.15;;;;;;;-145.63;52.28;39274.56;5041474;28;20216;-68
2023/10/06 07:27:24;;;;;;;9.23;6.00;;;;;;;-145.63;52.21;39282.41;5058944;28;20289;-69
2023/10/06 07:29:53;;;;;;;9.32;5.25;;;;;;;-145.63;52.30;39307.81;5051082;28;20025;-68
2023/10/06 07:32:18;;;;;;;7.57;4.78;;;;;;;-145.63;51.68;39247.19;5050174;28;20309;-68
2023/10/06 07:34:44;;;;;;;10.50;5.60;;;;;;;-145.63;51.84;39249.16;5059151;28;20052;-67
2023/10/06 07:37:11;;;;;;;9.60;5.63;;;;;;;-145.63;52.38;39288.25;5042623;28;20026;-69
2023/10/06 07:39:37;;;;;;;11.15;5.68;;;;;;;-145.63;52.32;39223.72;5060445;28;20134;-67
2023/10/06 07:42:06;;;;;;;8.32;4.82;;;;;;;-145.63;52.08;39233.50;5046351;28;20025;-68
2023/10/06 07:44:33;;;;;;;8.68;5.10;;;;;;;-145.63;51.50;39204.16;5031598;28;20025;-68
2023/10/06 07:47:00;;;;;;;11.57;5.50;;;;;;;-145.63;50.76;39258.94;5046622;28;20037;-67
2023/10/06 07:49:27;;;;;;;7.53;4.90;;;;;;;-145.63;50.38;39268.72;5049212;28;20025;-66
2023/10/06 07:51:55;;;;;;;9.35;4.93;;;;;;;-145.63;50.49;39245.25;5042406;28;20105;-66
2023/10/06 07:54:23;;;;;;;9.02;5.13;;;;;;;-145.63;50.64;39251.09;5039335;28;20021;-68
2023/10/06 07:56:49;;;;;;;9.55;4.55;;;;;;;-145.63;50.34;39256.97;5053336;28;20064;-67
2023/10/06 07:59:15;;;;;;;13.18;5.63;;;;;;;-145.63;50.72;39274.56;5056203;28;20022;-67
2023/10/06 08:01:41;;;;;;;8.20;5.00;;;;;;;-145.63;50.93;39258.94;5044173;28;20088;-68
2023/10/06 08:04:07;;;;;;;9.02;5.43;;;;;;;-145.63;52.23;39300.00;5062662;28;20051;-67
2023/10/06 08:06:33;;;;;;;8.38;4.85;;;;;;;-145.63;52.03;39274.56;5045267;28;20025;-67
2023/10/06 08:08:59;;;;;;;9.93;4.85;;;;;;;-145.63;53.23;39288.25;5053310;28;20043;-69
2023/10/06 08:11:25;;;;;;;12.52;5.78;;;;;;;-145.63;54.19;39258.94;5050204;28;20198;-69
2023/10/06 08:13:52;;;;;;;7.15;4.30;;;;;;;-145.63;54.93;39313.69;5045061;28;20325;-67
2023/10/06 08:16:18;;;;;;;9.75;5.20;;;;;;;-145.63;55.34;39313.69;5054897;28;20076;-68
2023/10/06 08:18:45;;;;;;;10.35;5.97;;;;;;;-145.63;56.01;39309.78;5048762;28;20029;-67
2023/10/06 08:21:11;;;;;;;10.45;5.57;;;;;;;-145.63;56.16;39268.72;5056331;28;20025;-66
2023/10/06 08:23:36;;;;;;;10.25;6.00;;;;;;;-145.63;56.40;39307.81;5053096;28;20161;-68
2023/10/06 08:26:07;;;;;;;11.70;6.53;;;;;;;-145.63;56.48;39286.31;5046297;28;20279;-69
2023/10/06 08:28:34;;;;;;;10.35;6.63;;;;;;;-145.63;57.49;39301.94;5062091;28;20024;-68
2023/10/06 08:31:03;;;;;;;12.48;6.50;;;;;;;-145.63;57.95;39305.88;5040952;28;20113;-68
2023/10/06 08:33:29;;;;;;;11.10;6.68;;;;;;;-145.63;58.45;39327.38;5058306;28;20029;-68
2023/10/06 08:35:56;;;;;;;10.18;7.03;;;;;;;-145.63;57.40;39247.19;5050391;28;20075;-67
2023/10/06 08:38:24;;;;;;;9.98;7.22;;;;;;;-145.63;57.85;39266.75;5049054;28;20024;-68
2023/10/06 08:41:00;;;;;;;13.93;7.22;;;;;;;-145.63;57.98;39255.00;5059483;28;20382;-67
2023/10/06 08:43:29;;;;;;;17.75;6.93;;;;;;;-145.63;57.68;39264.78;5022156;28;20026;-68
2023/10/06 08:45:59;;;;;;;10.18;6.60;;;;;;;-145.63;58.19;39274.56;5056813;28;20037;-68
2023/10/06 08:48:32;;;;;;;12.07;7.68;;;;;;;-145.63;58.27;39243.28;5057554;28;20096;-68
2023/10/06 08:50:59;;;;;;;11.43;7.70;;;;;;;-145.63;58.10;39223.72;5050116;28;20061;-67
2023/10/06 08:53:26;;;;;;;10.43;7.38;;;;;;;-145.63;57.89;39219.81;5042503;28;20037;-67
2023/10/06 08:55:52;;;;;;;14.90;7.90;;;;;;;-145.63;57.75;39170.91;5062853;28;20021;-69
2023/10/06 08:58:19;;;;;;;9.20;6.85;;;;;;;-145.63;55.94;39106.38;5045610;28;20133;-67
2023/10/06 09:00:46;;;;;;;11.20;7.28;;;;;;;-145.63;54.54;39122.03;5063274;28;20055;-67
2023/10/06 09:03:14;;;;;;;11.98;6.63;;;;;;;-145.63;53.55;39116.16;5051431;28;20025;-68
2023/10/06 09:05:41;;;;;;;11.00;6.75;;;;;;;-145.63;53.55;39235.47;5051877;28;20330;-68
2023/10/06 09:08:09;;;;;;;9.77;6.97;;;;;;;-145.63;53.66;39174.84;5049088;28;20309;-67
2023/10/06 09:10:48;;;;;;;10.63;7.28;;;;;;;-145.63;54.03;39180.69;5044684;28;20332;-68
2023/10/06 09:13:17;;;;;;;10.57;6.85;;;;;;;-145.63;54.83;39206.13;5044064;28;20032;-67
2023/10/06 09:16:07;;;;;;;13.55;6.70;;;;;;;-145.63;54.82;39223.72;5042316;28;20041;-67
2023/10/06 09:18:35;;;;;;;10.85;6.40;;;;;;;-145.63;54.00;39206.13;5044836;28;20037;-68
2023/10/06 09:21:20;;;;;;;11.65;7.03;;;;;;;-145.63;53.86;39264.78;5056996;28;20052;-67
2023/10/06 09:23:46;;;;;;;9.75;7.05;;;;;;;-145.63;54.15;39210.03;5054979;28;20032;-68
2023/10/06 09:26:15;;;;;;;11.45;7.28;;;;;;;-145.63;54.63;39235.47;5049961;28;20305;-68
2023/10/06 09:28:59;;;;;;;11.63;7.30;;;;;;;-145.63;54.62;39268.72;5063696;28;20020;-68
2023/10/06 09:31:39;;;;;;;10.40;6.57;;;;;;;-145.63;54.49;39300.00;5045162;28;20025;-68
2023/10/06 09:34:08;;;;;;;9.77;5.15;;;;;;;-145.63;54.88;39241.31;5026058;28;20036;-66
2023/10/06 09:36:34;;;;;;;9.55;5.97;;;;;;;-145.63;55.45;39258.94;5059114;28;20086;-68
2023/10/06 09:39:01;;;;;;;6.53;4.53;;;;;;;-145.63;54.53;39270.66;5053245;28;20033;-67
2023/10/06 09:41:29;;;;;;;5.82;4.43;;;;;;;-145.63;54.91;39274.56;5046918;28;20036;-68
2023/10/06 09:44:03;;;;;;;8.18;4.57;;;;;;;-145.63;55.20;39319.56;5046947;28;20172;-68
2023/10/06 09:46:29;;;;;;;7.78;4.18;;;;;;;-145.63;55.32;39274.56;5055107;28;20087;-68
2023/10/06 09:48:59;;;;;;;8.88;4.78;;;;;;;-145.63;55.70;39266.75;5045270;28;20030;-67
2023/10/06 09:51:31;;;;;;;5.43;4.03;;;;;;;-145.63;55.49;39290.22;5039798;28;20085;-66
2023/10/06 09:53:58;;;;;;;7.95;4.45;;;;;;;-145.63;55.57;39286.31;5044166;28;20206;-67
2023/10/06 09:56:23;;;;;;;7.85;3.90;;;;;;;-145.63;55.26;39319.56;5044625;28;20026;-67
2023/10/06 09:58:51;;;;;;;7.15;3.63;;;;;;;-145.63;55.80;39294.13;5044098;28;20041;-67
2023/10/06 10:01:17;;;;;;;7.72;4.15;;;;;;;-145.63;56.09;39270.66;5047611;28;20073;-68
2023/10/06 10:03:43;;;;;;;9.57;4.20;;;;;;;-145.63;55.95;39270.66;5061759;28;20077;-68
2023/10/06 10:06:10;;;;;;;8.27;6.97;;;;;;;-145.63;56.20;39253.06;5051618;28;20037;-67
2023/10/06 10:08:39;;;;;;;18.50;12.77;;;;;;;-145.63;56.54;39278.47;5045996;28;20198;-67
2023/10/06 10:11:13;;;;;;;7.97;5.45;;;;;;;-145.63;56.68;39280.44;5057762;28;20087;-67
2023/10/06 10:13:49;;;;;;;5.78;4.05;;;;;;;-145.63;56.66;39258.94;5057514;28;20033;-68
2023/10/06 10:16:42;;;;;;;7.25;3.60;;;;;;;-145.63;56.63;39276.53;5047132;28;20104;-69
2023/10/06 10:19:11;;;;;;;5.15;4.00;;;;;;;-145.63;56.95;38650.75;5045168;28;20026;-68
2023/10/06 10:21:38;;;;;;;4.05;3.00;;;;;;;-145.63;55.29;39270.66;5060502;28;20075;-67
2023/10/06 10:24:05;;;;;;;6.07;3.50;;;;;;;-145.63;55.47;39313.69;5051796;28;20029;-68
2023/10/06 10:26:35;;;;;;;11.65;8.05;;;;;;;-145.63;55.72;39270.66;5051078;28;20047;-68
2023/10/06 10:29:12;;;;;;;5.78;3.78;;;;;;;-145.63;55.55;39288.25;5060260;28;20297;-68
2023/10/06 10:31:39;;;;;;;4.80;3.35;;;;;;;-145.63;55.97;39296.09;5044036;28;20033;-68
2023/10/06 10:34:07;;;;;;;5.28;3.20;;;;;;;-145.63;55.77;39270.66;5058281;28;20121;-68
2023/10/06 10:36:33;;;;;;;5.80;2.92;;;;;;;-145.63;55.17;39323.47;5046555;28;20021;-69
2023/10/06 10:39:14;;;;;;;6.63;3.92;;;;;;;-145.63;56.31;39305.88;5043283;28;20356;-69
2023/10/06 10:41:40;;;;;;;6.80;3.50;;;;;;;-145.63;56.43;39317.59;5044842;28;20014;-67
2023/10/06 10:44:08;;;;;;;8.00;3.60;;;;;;;-145.63;56.88;39348.88;5045846;28;20525;-68
2023/10/06 10:46:56;;;;;;;6.68;3.67;;;;;;;-145.63;56.65;39350.84;5063546;28;20048;-67
2023/10/06 10:49:22;;;;;;;3.45;2.70;;;;;;;-145.63;57.25;39272.63;5060400;28;20017;-67
2023/10/06 10:51:57;;;;;;;4.65;3.28;;;;;;;-145.63;57.05;39200.25;5045571;28;20356;-67
2023/10/06 10:54:31;;;;;;;4.60;3.22;;;;;;;-145.63;57.01;39319.56;5057369;28;20092;-66
2023/10/06 10:57:02;;;;;;;4.25;2.90;;;;;;;-145.63;57.24;39298.03;5052548;28;20033;-68
2023/10/06 11:03:00;;;;;;;5.15;3.22;;;;;;;-145.63;57.20;39317.59;5054640;28;20217;-68
2023/10/06 11:05:28;;;;;;;4.85;3.00;;;;;;;-145.63;56.95;39274.56;5043174;28;20053;-67
2023/10/06 11:08:02;;;;;;;6.55;3.10;;;;;;;-145.63;57.35;39311.72;5043683;28;20036;-68
2023/10/06 11:10:28;;;;;;;5.80;3.65;;;;;;;-145.63;57.30;39262.84;5058826;28;20089;-68
2023/10/06 11:13:19;;;;;;;5.50;4.20;;;;;;;-145.63;57.41;39300.00;5042431;28;20091;-66
2023/10/06 11:15:45;;;;;;;6.15;3.85;;;;;;;-145.63;56.89;39286.31;5041949;28;20112;-67
2023/10/06 11:18:13;;;;;;;6.75;3.88;;;;;;;-145.63;57.13;39278.47;5042673;28;20033;-67
2023/10/06 11:20:42;;;;;;;5.80;3.97;;;;;;;-145.63;57.41;39317.59;5042735;28;20045;-67
2023/10/06 11:23:08;;;;;;;11.23;4.50;;;;;;;-145.63;58.39;39300.00;5046186;28;20032;-67
2023/10/06 11:25:38;;;;;;;6.25;4.75;;;;;;;-145.63;57.80;39286.31;5052977;28;20093;-67
2023/10/06 11:28:12;;;;;;;5.40;4.20;;;;;;;-145.63;58.20;39301.94;5061784;28;20025;-67
2023/10/06 11:30:42;;;;;;;8.40;5.05;;;;;;;-145.63;57.93;39235.47;5046627;28;20067;-67
2023/10/06 11:33:10;;;;;;;10.55;5.30;;;;;;;-145.63;58.11;39270.66;5053186;28;20032;-67
2023/10/06 11:35:39;;;;;;;8.25;5.45;;;;;;;-145.63;58.41;39237.41;5055420;28;20393;-67